ニジネヴァルトフスク の空港の天気 - METARとTAF

Nizhnevartovsk ( USNN / NJC ) - ロシア ニジネヴァルトフスク
飛行場実況気象(Metar)
観測時間04/25 19:30 YEKT (04/25 14:30 UTC)
風向・風速南西 3m/s
視程10km以上
天気現象
全天を覆う雲 雲底高度 580m
気温2℃
湿度93%
気圧1002hPa
METARUSNN 251430Z 23003MPS 9999 OVC019 02/01 Q1002 R21/19//60 NOSIG RMK QFE747
過去の天気等 Google飛行場航空写真 Wunderground天気予報

過去48時間のMETAR

飛行場予報(TAF)
発表時間: 4/25 19:00 YEKT (4/25 14:00 UTC)
予報対象時間: 25日20時 YEKT ~ 26日20時 YEKT
風向・風速西南西 3m/s
視程10km以上
全天の8割程度の雲 雲底高度 610m
25日20時 YEKT ~ 25日23時 YEKT に一時的に
視程2,000m
天気現象しゅう雨雪
全天の8割程度の雲 雲底高度 210m
全天の4割程度の積乱雲 雲底高度 520m
25日23時 YEKT ~ 26日5時 YEKT に一時的に
視程1,000m
天気現象しゅう雪
全天の8割程度の雲 雲底高度 90m
全天の4割程度の積乱雲 雲底高度 460m
26日5時 YEKT ~ 26日7時 YEKT に徐々に
風向・風速西北西 3m/s
TAF USNN 251400Z 2515/2615 25003MPS 9999 BKN020
TEMPO 2515/2518 2000 SHRASN BKN007 SCT017CB
TEMPO 2518/2524 1000 SHSN BKN003 SCT015CB
BECMG 2600/2602 30003MPS